RoSS Sea — WDE3122 — position and weather

sailwx.info

Track history (hours):
 
Tides and Currents Weather Stations Pressure Air Temp Water Temp Dewpoint Dewpoint Depression Visibility Wind Speed Wind Dir Waves Ship Positions

RoSS Sea

Owner: Kirby Inland Marine, LP, Houston, TX. More information available from US FCC via Universal Licensing System and Coast Guard Vessel Documentation Center.

Last reported at 2016-Dec-03 23:31 UTC. Time now 2016-Dec-03 23:51 UTC.
Position N 40°39' W 074°10'.

Length 30 m; draft 5 m.

Type: Towing. MMSI: 367334360.

Date/timePositionNaut miles runAvg speedWind from/ knotsBaromVisibWave heightAir tempDewpointWater temp
2016-Dec-03 23:31N 40°39' W 074°10'0 0.0
2016-Dec-03 22:31N 40°39' W 074°10'0 0.0
2016-Dec-03 21:31N 40°39' W 074°10'0 0.0
2016-Dec-03 20:28N 40°39' W 074°10'0 0.0
2016-Dec-03 19:31N 40°39' W 074°10'0 0.0
2016-Dec-03 18:31N 40°39' W 074°10'0 0.0
2016-Dec-03 17:31N 40°39' W 074°10'0 0.0
2016-Dec-03 16:28N 40°38' W 074°10'0 0.0
2016-Dec-03 15:33N 40°38' W 074°10'0 0.0
2016-Dec-03 14:32N 40°38' W 074°10'0 0.0
2016-Dec-03 13:33N 40°38' W 074°10'0 0.0
2016-Dec-03 12:33N 40°38' W 074°10'0 0.0
2016-Dec-03 11:33N 40°38' W 074°10'0 0.0
2016-Dec-03 10:34N 40°38' W 074°10'0 0.0
2016-Dec-03 09:33N 40°38' W 074°10'0 0.0
2016-Dec-03 08:33N 40°38' W 074°10'0 0.0
2016-Dec-03 07:33N 40°38' W 074°10'0 0.0
2016-Dec-03 06:33N 40°38' W 074°10'0 0.0
2016-Dec-03 05:33N 40°38' W 074°10'0 0.0
2016-Dec-03 04:34N 40°38' W 074°10'0 0.0
2016-Dec-03 03:34N 40°38' W 074°10'0 0.0
2016-Dec-03 02:33N 40°38' W 074°10'0 0.0
2016-Dec-03 01:33N 40°38' W 074°10'0 0.0
2016-Dec-03 00:33N 40°38' W 074°10'3 3.3
2016-Dec-02 23:33N 40°39' W 074°06'7 7.4
2016-Dec-02 22:34N 40°44' W 073°58'5 0.3
2016-Dec-02 04:03N 40°48' W 073°54'3 5.2
2016-Dec-02 03:33N 40°46' W 073°57'6 5.5
2016-Dec-02 02:33N 40°41' W 074°00'6 5.9
2016-Dec-02 01:33N 40°39' W 074°07'4 4.1
2016-Dec-02 00:32N 40°37' W 074°12'0 0.0
2016-Dec-01 01:33N 40°37' W 074°12'2 2.4
2016-Dec-01 00:33N 40°39' W 074°10'7 0.7
2016-Nov-30 14:03N 40°33' W 074°15'0 0.0
2016-Nov-30 12:29N 40°33' W 074°15'4 3.8
2016-Nov-30 11:27N 40°36' W 074°12'3 3.0
2016-Nov-30 10:29N 40°39' W 074°10'0 0.1
2016-Nov-30 09:21N 40°39' W 074°10'0 0.0
2016-Nov-30 08:33N 40°39' W 074°10'0 0.0
2016-Nov-30 07:33N 40°39' W 074°10'0 0.0
2016-Nov-30 06:33N 40°39' W 074°10'0 0.0
2016-Nov-30 05:33N 40°39' W 074°10'0 0.0
2016-Nov-30 04:33N 40°39' W 074°10'0 0.0
2016-Nov-30 03:33N 40°39' W 074°10'0 0.0
2016-Nov-30 02:33N 40°39' W 074°10'0 0.0
2016-Nov-30 01:21N 40°39' W 074°10'0 0.0
2016-Nov-30 00:33N 40°39' W 074°10'0 0.0
2016-Nov-29 23:33N 40°39' W 074°10'0 0.0
2016-Nov-29 22:30N 40°39' W 074°10'0 0.0
2016-Nov-29 21:21N 40°39' W 074°10'0 0.0
2016-Nov-29 20:20N 40°39' W 074°10'0 0.0
2016-Nov-29 18:17N 40°39' W 074°10'0 0.0
2016-Nov-29 17:17N 40°39' W 074°10'0 0.0
2016-Nov-29 15:26N 40°39' W 074°10'0 0.0
2016-Nov-29 12:26N 40°39' W 074°10'0 0.0
2016-Nov-29 11:32N 40°39' W 074°10'0 0.0
2016-Nov-29 10:32N 40°39' W 074°10'0 0.0
2016-Nov-29 09:32N 40°39' W 074°10'0 0.0
2016-Nov-29 08:29N 40°39' W 074°10'0 0.0
2016-Nov-29 07:29N 40°39' W 074°10'0 0.0
2016-Nov-29 05:26N 40°39' W 074°10'0 0.0
2016-Nov-29 03:32N 40°39' W 074°10'0 0.0
2016-Nov-29 02:32N 40°39' W 074°10'0 0.0
2016-Nov-29 01:32N 40°39' W 074°10'0 0.0
2016-Nov-29 00:32N 40°39' W 074°10'0 0.0
2016-Nov-28 23:32N 40°39' W 074°10'0 0.0
2016-Nov-28 22:32N 40°39' W 074°10'0 0.0
2016-Nov-28 16:28N 40°39' W 074°10'0 0.0
2016-Nov-28 15:31N 40°39' W 074°10'0 0.0
2016-Nov-28 14:31N 40°39' W 074°10'0 0.0
2016-Nov-28 13:22N 40°39' W 074°10'0 0.0
2016-Nov-28 12:31N 40°38' W 074°10'0 0.0
2016-Nov-28 11:31N 40°38' W 074°10'0 0.0
2016-Nov-28 10:25N 40°38' W 074°10'0 0.0
2016-Nov-28 09:31N 40°38' W 074°10'0 0.0
2016-Nov-28 08:31N 40°38' W 074°10'0 0.0
2016-Nov-28 07:31N 40°38' W 074°10'0 0.0
2016-Nov-28 06:31N 40°38' W 074°10'0 0.0
2016-Nov-28 05:31N 40°38' W 074°10'0 0.0
2016-Nov-28 04:31N 40°38' W 074°10'0 0.0
2016-Nov-28 03:31N 40°38' W 074°10'0 0.0
2016-Nov-28 02:31N 40°38' W 074°10'0 0.0
2016-Nov-28 01:31N 40°38' W 074°10'0 0.0
2016-Nov-28 00:31N 40°38' W 074°10'0 0.0
2016-Nov-27 23:28N 40°38' W 074°10'0 0.0
2016-Nov-27 22:33N 40°39' W 074°10'2 1.9
2016-Nov-27 21:33N 40°38' W 074°12'5 0.3
2016-Nov-27 07:22N 40°33' W 074°14'5 6.0
2016-Nov-27 06:33N 40°38' W 074°12'0 0.1
2016-Nov-27 03:19N 40°38' W 074°12'0 0.0
2016-Nov-27 02:31N 40°38' W 074°12'0 0.0
2016-Nov-27 01:31N 40°38' W 074°12'0 0.0
2016-Nov-27 00:31N 40°38' W 074°12'0 0.0
2016-Nov-26 23:28N 40°38' W 074°12'0 0.0
2016-Nov-26 22:28N 40°38' W 074°12'0 0.0
2016-Nov-26 21:28N 40°38' W 074°12'0 0.0
2016-Nov-26 20:28N 40°38' W 074°12'0 0.0
2016-Nov-26 19:28N 40°38' W 074°12'0 0.0
2016-Nov-26 18:28N 40°38' W 074°12'0 0.0
2016-Nov-26 17:31N 40°38' W 074°12'1 0.8
2016-Nov-26 16:33N 40°39' W 074°11'1 0.8
2016-Nov-26 15:33N 40°39' W 074°10'0 0.1
2016-Nov-26 14:33N 40°38' W 074°10'0 0.0
2016-Nov-26 13:33N 40°39' W 074°10'0 0.0
2016-Nov-26 12:33N 40°39' W 074°10'0 0.0
2016-Nov-26 11:33N 40°39' W 074°10'0 0.0
2016-Nov-26 10:27N 40°39' W 074°10'0 0.0
2016-Nov-26 09:27N 40°39' W 074°10'0 0.0
2016-Nov-26 08:27N 40°39' W 074°10'0 0.0
2016-Nov-26 07:33N 40°39' W 074°10'0 0.0
2016-Nov-26 06:33N 40°39' W 074°10'0 0.0
2016-Nov-26 05:33N 40°39' W 074°10'0 0.0
2016-Nov-26 04:33N 40°39' W 074°10'0 0.0
2016-Nov-26 03:33N 40°39' W 074°10'0 0.0
2016-Nov-26 02:33N 40°39' W 074°10'0 0.0
2016-Nov-26 01:33N 40°39' W 074°10'0 0.0
2016-Nov-26 00:33N 40°39' W 074°10'0 0.0
2016-Nov-25 23:27N 40°39' W 074°10'0 0.0
2016-Nov-25 22:33N 40°39' W 074°10'0 0.0
2016-Nov-25 21:21N 40°39' W 074°10'0 0.0
2016-Nov-25 20:33N 40°39' W 074°10'4 4.4
2016-Nov-25 19:33N 40°39' W 074°04'4 4.2
2016-Nov-25 18:33N 40°39' W 074°10'6 5.8
2016-Nov-25 17:32N 40°33' W 074°13'2 0.2
2016-Nov-25 09:20N 40°33' W 074°15'4 5.0
2016-Nov-25 08:30N 40°36' W 074°12'5 5.2
2016-Nov-25 07:33N 40°39' W 074°07'1 0.9
2016-Nov-25 06:33N 40°39' W 074°08'2 1.5
2016-Nov-25 05:31N 40°39' W 074°10'0 0.0
2016-Nov-25 04:31N 40°39' W 074°10'0 0.0
2016-Nov-25 03:31N 40°39' W 074°10'0 0.0
2016-Nov-25 02:28N 40°39' W 074°10'0 0.0
2016-Nov-25 01:22N 40°39' W 074°10'0 0.0
2016-Nov-25 00:28N 40°39' W 074°10'0 0.0
2016-Nov-24 23:31N 40°39' W 074°10'0 0.0
2016-Nov-24 22:31N 40°39' W 074°10'0 0.0
2016-Nov-24 21:31N 40°39' W 074°10'0 0.0
2016-Nov-24 20:31N 40°39' W 074°10'0 0.0
2016-Nov-24 19:31N 40°39' W 074°10'0 0.0
2016-Nov-24 18:31N 40°39' W 074°10'0 0.0
2016-Nov-24 17:25N 40°39' W 074°10'0 0.0
2016-Nov-24 16:31N 40°39' W 074°10'0 0.0
2016-Nov-24 15:31N 40°39' W 074°10'0 0.0
2016-Nov-24 14:31N 40°39' W 074°10'0 0.0
2016-Nov-24 13:31N 40°39' W 074°10'0 0.1
2016-Nov-24 12:33N 40°38' W 074°10'0 0.0
2016-Nov-24 11:33N 40°38' W 074°10'0 0.0
2016-Nov-24 10:33N 40°38' W 074°10'0 0.0
2016-Nov-24 09:33N 40°38' W 074°10'0 0.0
2016-Nov-24 08:30N 40°38' W 074°10'0 0.0
2016-Nov-24 07:27N 40°38' W 074°10'0 0.0
2016-Nov-24 06:33N 40°38' W 074°10'0 0.0
2016-Nov-24 05:33N 40°38' W 074°10'0 0.0
2016-Nov-24 04:33N 40°38' W 074°10'0 0.0
2016-Nov-24 03:30N 40°38' W 074°10'0 0.0
2016-Nov-24 02:27N 40°38' W 074°10'0 0.0
2016-Nov-24 01:33N 40°38' W 074°10'0 0.0
2016-Nov-24 00:33N 40°38' W 074°10'0 0.0
2016-Nov-23 23:33N 40°38' W 074°10'  
Track history (hours):
 
Tides and Currents Weather Stations Pressure Air Temp Water Temp Dewpoint Dewpoint Depression Visibility Wind Speed Wind Dir Waves Ship Positions

RoSS Sea

Owner: Kirby Inland Marine, LP, Houston, TX. More information available from US FCC via Universal Licensing System and Coast Guard Vessel Documentation Center.

Last reported at 2016-Dec-03 23:31 UTC. Time now 2016-Dec-03 23:51 UTC.
Position N 40°39' W 074°10'.

Length 30 m; draft 5 m.

Type: Towing. MMSI: 367334360.

Date/timePositionNaut miles runAvg speedWind from/ knotsBaromVisibWave heightAir tempDewpointWater temp
2016-Dec-03 23:31N 40°39' W 074°10'0 0.0
2016-Dec-03 22:31N 40°39' W 074°10'0 0.0
2016-Dec-03 21:31N 40°39' W 074°10'0 0.0
2016-Dec-03 20:28N 40°39' W 074°10'0 0.0
2016-Dec-03 19:31N 40°39' W 074°10'0 0.0
2016-Dec-03 18:31N 40°39' W 074°10'0 0.0
2016-Dec-03 17:31N 40°39' W 074°10'0 0.0
2016-Dec-03 16:28N 40°38' W 074°10'0 0.0
2016-Dec-03 15:33N 40°38' W 074°10'0 0.0
2016-Dec-03 14:32N 40°38' W 074°10'0 0.0
2016-Dec-03 13:33N 40°38' W 074°10'0 0.0
2016-Dec-03 12:33N 40°38' W 074°10'0 0.0
2016-Dec-03 11:33N 40°38' W 074°10'0 0.0
2016-Dec-03 10:34N 40°38' W 074°10'0 0.0
2016-Dec-03 09:33N 40°38' W 074°10'0 0.0
2016-Dec-03 08:33N 40°38' W 074°10'0 0.0
2016-Dec-03 07:33N 40°38' W 074°10'0 0.0
2016-Dec-03 06:33N 40°38' W 074°10'0 0.0
2016-Dec-03 05:33N 40°38' W 074°10'0 0.0
2016-Dec-03 04:34N 40°38' W 074°10'0 0.0
2016-Dec-03 03:34N 40°38' W 074°10'0 0.0
2016-Dec-03 02:33N 40°38' W 074°10'0 0.0
2016-Dec-03 01:33N 40°38' W 074°10'0 0.0
2016-Dec-03 00:33N 40°38' W 074°10'3 3.3
2016-Dec-02 23:33N 40°39' W 074°06'7 7.4
2016-Dec-02 22:34N 40°44' W 073°58'5 0.3
2016-Dec-02 04:03N 40°48' W 073°54'3 5.2
2016-Dec-02 03:33N 40°46' W 073°57'6 5.5
2016-Dec-02 02:33N 40°41' W 074°00'6 5.9
2016-Dec-02 01:33N 40°39' W 074°07'4 4.1
2016-Dec-02 00:32N 40°37' W 074°12'0 0.0
2016-Dec-01 01:33N 40°37' W 074°12'2 2.4
2016-Dec-01 00:33N 40°39' W 074°10'7 0.7
2016-Nov-30 14:03N 40°33' W 074°15'0 0.0
2016-Nov-30 12:29N 40°33' W 074°15'4 3.8
2016-Nov-30 11:27N 40°36' W 074°12'3 3.0
2016-Nov-30 10:29N 40°39' W 074°10'0 0.1
2016-Nov-30 09:21N 40°39' W 074°10'0 0.0
2016-Nov-30 08:33N 40°39' W 074°10'0 0.0
2016-Nov-30 07:33N 40°39' W 074°10'0 0.0
2016-Nov-30 06:33N 40°39' W 074°10'0 0.0
2016-Nov-30 05:33N 40°39' W 074°10'0 0.0
2016-Nov-30 04:33N 40°39' W 074°10'0 0.0
2016-Nov-30 03:33N 40°39' W 074°10'0 0.0
2016-Nov-30 02:33N 40°39' W 074°10'0 0.0
2016-Nov-30 01:21N 40°39' W 074°10'0 0.0
2016-Nov-30 00:33N 40°39' W 074°10'0 0.0
2016-Nov-29 23:33N 40°39' W 074°10'0 0.0
2016-Nov-29 22:30N 40°39' W 074°10'0 0.0
2016-Nov-29 21:21N 40°39' W 074°10'0 0.0
2016-Nov-29 20:20N 40°39' W 074°10'0 0.0
2016-Nov-29 18:17N 40°39' W 074°10'0 0.0
2016-Nov-29 17:17N 40°39' W 074°10'0 0.0
2016-Nov-29 15:26N 40°39' W 074°10'0 0.0
2016-Nov-29 12:26N 40°39' W 074°10'0 0.0
2016-Nov-29 11:32N 40°39' W 074°10'0 0.0
2016-Nov-29 10:32N 40°39' W 074°10'0 0.0
2016-Nov-29 09:32N 40°39' W 074°10'0 0.0
2016-Nov-29 08:29N 40°39' W 074°10'0 0.0
2016-Nov-29 07:29N 40°39' W 074°10'0 0.0
2016-Nov-29 05:26N 40°39' W 074°10'0 0.0
2016-Nov-29 03:32N 40°39' W 074°10'0 0.0
2016-Nov-29 02:32N 40°39' W 074°10'0 0.0
2016-Nov-29 01:32N 40°39' W 074°10'0 0.0
2016-Nov-29 00:32N 40°39' W 074°10'0 0.0
2016-Nov-28 23:32N 40°39' W 074°10'0 0.0
2016-Nov-28 22:32N 40°39' W 074°10'0 0.0
2016-Nov-28 16:28N 40°39' W 074°10'0 0.0
2016-Nov-28 15:31N 40°39' W 074°10'0 0.0
2016-Nov-28 14:31N 40°39' W 074°10'0 0.0
2016-Nov-28 13:22N 40°39' W 074°10'0 0.0
2016-Nov-28 12:31N 40°38' W 074°10'0 0.0
2016-Nov-28 11:31N 40°38' W 074°10'0 0.0
2016-Nov-28 10:25N 40°38' W 074°10'0 0.0
2016-Nov-28 09:31N 40°38' W 074°10'0 0.0
2016-Nov-28 08:31N 40°38' W 074°10'0 0.0
2016-Nov-28 07:31N 40°38' W 074°10'0 0.0
2016-Nov-28 06:31N 40°38' W 074°10'0 0.0
2016-Nov-28 05:31N 40°38' W 074°10'0 0.0
2016-Nov-28 04:31N 40°38' W 074°10'0 0.0
2016-Nov-28 03:31N 40°38' W 074°10'0 0.0
2016-Nov-28 02:31N 40°38' W 074°10'0 0.0
2016-Nov-28 01:31N 40°38' W 074°10'0 0.0
2016-Nov-28 00:31N 40°38' W 074°10'0 0.0
2016-Nov-27 23:28N 40°38' W 074°10'0 0.0
2016-Nov-27 22:33N 40°39' W 074°10'2 1.9
2016-Nov-27 21:33N 40°38' W 074°12'5 0.3
2016-Nov-27 07:22N 40°33' W 074°14'5 6.0
2016-Nov-27 06:33N 40°38' W 074°12'0 0.1
2016-Nov-27 03:19N 40°38' W 074°12'0 0.0
2016-Nov-27 02:31N 40°38' W 074°12'0 0.0
2016-Nov-27 01:31N 40°38' W 074°12'0 0.0
2016-Nov-27 00:31N 40°38' W 074°12'0 0.0
2016-Nov-26 23:28N 40°38' W 074°12'0 0.0
2016-Nov-26 22:28N 40°38' W 074°12'0 0.0
2016-Nov-26 21:28N 40°38' W 074°12'0 0.0
2016-Nov-26 20:28N 40°38' W 074°12'0 0.0
2016-Nov-26 19:28N 40°38' W 074°12'0 0.0
2016-Nov-26 18:28N 40°38' W 074°12'0 0.0
2016-Nov-26 17:31N 40°38' W 074°12'1 0.8
2016-Nov-26 16:33N 40°39' W 074°11'1 0.8
2016-Nov-26 15:33N 40°39' W 074°10'0 0.1
2016-Nov-26 14:33N 40°38' W 074°10'0 0.0
2016-Nov-26 13:33N 40°39' W 074°10'0 0.0
2016-Nov-26 12:33N 40°39' W 074°10'0 0.0
2016-Nov-26 11:33N 40°39' W 074°10'0 0.0
2016-Nov-26 10:27N 40°39' W 074°10'0 0.0
2016-Nov-26 09:27N 40°39' W 074°10'0 0.0
2016-Nov-26 08:27N 40°39' W 074°10'0 0.0
2016-Nov-26 07:33N 40°39' W 074°10'0 0.0
2016-Nov-26 06:33N 40°39' W 074°10'0 0.0
2016-Nov-26 05:33N 40°39' W 074°10'0 0.0
2016-Nov-26 04:33N 40°39' W 074°10'0 0.0
2016-Nov-26 03:33N 40°39' W 074°10'0 0.0
2016-Nov-26 02:33N 40°39' W 074°10'0 0.0
2016-Nov-26 01:33N 40°39' W 074°10'0 0.0
2016-Nov-26 00:33N 40°39' W 074°10'0 0.0
2016-Nov-25 23:27N 40°39' W 074°10'0 0.0
2016-Nov-25 22:33N 40°39' W 074°10'0 0.0
2016-Nov-25 21:21N 40°39' W 074°10'0 0.0
2016-Nov-25 20:33N 40°39' W 074°10'4 4.4
2016-Nov-25 19:33N 40°39' W 074°04'4 4.2
2016-Nov-25 18:33N 40°39' W 074°10'6 5.8
2016-Nov-25 17:32N 40°33' W 074°13'2 0.2
2016-Nov-25 09:20N 40°33' W 074°15'4 5.0
2016-Nov-25 08:30N 40°36' W 074°12'5 5.2
2016-Nov-25 07:33N 40°39' W 074°07'1 0.9
2016-Nov-25 06:33N 40°39' W 074°08'2 1.5
2016-Nov-25 05:31N 40°39' W 074°10'0 0.0
2016-Nov-25 04:31N 40°39' W 074°10'0 0.0
2016-Nov-25 03:31N 40°39' W 074°10'0 0.0
2016-Nov-25 02:28N 40°39' W 074°10'0 0.0
2016-Nov-25 01:22N 40°39' W 074°10'0 0.0
2016-Nov-25 00:28N 40°39' W 074°10'0 0.0
2016-Nov-24 23:31N 40°39' W 074°10'0 0.0
2016-Nov-24 22:31N 40°39' W 074°10'0 0.0
2016-Nov-24 21:31N 40°39' W 074°10'0 0.0
2016-Nov-24 20:31N 40°39' W 074°10'0 0.0
2016-Nov-24 19:31N 40°39' W 074°10'0 0.0
2016-Nov-24 18:31N 40°39' W 074°10'0 0.0
2016-Nov-24 17:25N 40°39' W 074°10'0 0.0
2016-Nov-24 16:31N 40°39' W 074°10'0 0.0
2016-Nov-24 15:31N 40°39' W 074°10'0 0.0
2016-Nov-24 14:31N 40°39' W 074°10'0 0.0
2016-Nov-24 13:31N 40°39' W 074°10'0 0.1
2016-Nov-24 12:33N 40°38' W 074°10'0 0.0
2016-Nov-24 11:33N 40°38' W 074°10'0 0.0
2016-Nov-24 10:33N 40°38' W 074°10'0 0.0
2016-Nov-24 09:33N 40°38' W 074°10'0 0.0
2016-Nov-24 08:30N 40°38' W 074°10'0 0.0
2016-Nov-24 07:27N 40°38' W 074°10'0 0.0
2016-Nov-24 06:33N 40°38' W 074°10'0 0.0
2016-Nov-24 05:33N 40°38' W 074°10'0 0.0
2016-Nov-24 04:33N 40°38' W 074°10'0 0.0
2016-Nov-24 03:30N 40°38' W 074°10'0 0.0
2016-Nov-24 02:27N 40°38' W 074°10'0 0.0
2016-Nov-24 01:33N 40°38' W 074°10'0 0.0
2016-Nov-24 00:33N 40°38' W 074°10'0 0.0
2016-Nov-23 23:33N 40°38' W 074°10'  

Dump ship's entire track history